sensor_id;sensor_type;location;lat;lon;timestamp;temperature;humidity
52189;DHT22;38162;45.926;13.608;2023-09-07T00:01:48;23.50;70.60
52189;DHT22;38162;45.926;13.608;2023-09-07T00:04:14;23.40;70.60
52189;DHT22;38162;45.926;13.608;2023-09-07T00:06:42;23.40;70.70
52189;DHT22;38162;45.926;13.608;2023-09-07T00:09:09;23.40;70.40
52189;DHT22;38162;45.926;13.608;2023-09-07T00:11:37;23.40;70.60
52189;DHT22;38162;45.926;13.608;2023-09-07T00:14:03;23.30;70.70
52189;DHT22;38162;45.926;13.608;2023-09-07T00:16:31;23.30;70.90
52189;DHT22;38162;45.926;13.608;2023-09-07T00:18:59;23.30;71.10
52189;DHT22;38162;45.926;13.608;2023-09-07T00:21:25;23.30;70.80
52189;DHT22;38162;45.926;13.608;2023-09-07T00:23:51;23.30;70.80
52189;DHT22;38162;45.926;13.608;2023-09-07T00:26:16;23.30;70.80
52189;DHT22;38162;45.926;13.608;2023-09-07T00:28:42;23.20;70.80
52189;DHT22;38162;45.926;13.608;2023-09-07T00:31:08;23.20;70.80
52189;DHT22;38162;45.926;13.608;2023-09-07T00:33:33;23.20;71.00
52189;DHT22;38162;45.926;13.608;2023-09-07T00:36:02;23.20;70.90
52189;DHT22;38162;45.926;13.608;2023-09-07T00:38:28;23.20;71.10
52189;DHT22;38162;45.926;13.608;2023-09-07T00:40:54;23.20;72.00
52189;DHT22;38162;45.926;13.608;2023-09-07T00:43:20;23.20;71.80
52189;DHT22;38162;45.926;13.608;2023-09-07T00:45:46;23.20;71.50
52189;DHT22;38162;45.926;13.608;2023-09-07T00:48:13;23.10;71.30
52189;DHT22;38162;45.926;13.608;2023-09-07T00:50:41;23.10;71.00
52189;DHT22;38162;45.926;13.608;2023-09-07T00:53:07;23.10;71.00
52189;DHT22;38162;45.926;13.608;2023-09-07T00:55:33;23.00;71.30
52189;DHT22;38162;45.926;13.608;2023-09-07T00:58:01;23.00;71.50
52189;DHT22;38162;45.926;13.608;2023-09-07T01:00:29;22.90;71.70
52189;DHT22;38162;45.926;13.608;2023-09-07T01:02:54;22.90;72.10
52189;DHT22;38162;45.926;13.608;2023-09-07T01:05:32;22.90;72.10
52189;DHT22;38162;45.926;13.608;2023-09-07T01:08:06;22.90;71.80
52189;DHT22;38162;45.926;13.608;2023-09-07T01:10:33;22.80;71.70
52189;DHT22;38162;45.926;13.608;2023-09-07T01:12:59;22.80;72.00
52189;DHT22;38162;45.926;13.608;2023-09-07T01:15:25;22.70;72.10
52189;DHT22;38162;45.926;13.608;2023-09-07T01:17:51;22.70;72.20
52189;DHT22;38162;45.926;13.608;2023-09-07T01:20:17;22.70;72.80
52189;DHT22;38162;45.926;13.608;2023-09-07T01:22:44;22.70;72.70
52189;DHT22;38162;45.926;13.608;2023-09-07T01:25:11;22.70;72.50
52189;DHT22;38162;45.926;13.608;2023-09-07T01:27:36;22.60;72.60
52189;DHT22;38162;45.926;13.608;2023-09-07T01:30:02;22.60;72.90
52189;DHT22;38162;45.926;13.608;2023-09-07T01:32:28;22.50;73.00
52189;DHT22;38162;45.926;13.608;2023-09-07T01:34:57;22.50;72.90
52189;DHT22;38162;45.926;13.608;2023-09-07T01:37:23;22.50;72.80
52189;DHT22;38162;45.926;13.608;2023-09-07T01:39:49;22.50;72.70
52189;DHT22;38162;45.926;13.608;2023-09-07T01:42:15;22.50;72.80
52189;DHT22;38162;45.926;13.608;2023-09-07T01:44:41;22.50;72.60
52189;DHT22;38162;45.926;13.608;2023-09-07T01:47:08;22.50;72.50
52189;DHT22;38162;45.926;13.608;2023-09-07T01:49:34;22.50;72.50
52189;DHT22;38162;45.926;13.608;2023-09-07T01:52:00;22.50;72.50
52189;DHT22;38162;45.926;13.608;2023-09-07T01:54:25;22.50;72.90
52189;DHT22;38162;45.926;13.608;2023-09-07T01:56:51;22.50;73.20
52189;DHT22;38162;45.926;13.608;2023-09-07T01:59:17;22.40;73.30
52189;DHT22;38162;45.926;13.608;2023-09-07T02:01:43;22.40;73.30
52189;DHT22;38162;45.926;13.608;2023-09-07T02:04:08;22.40;73.40
52189;DHT22;38162;45.926;13.608;2023-09-07T02:06:34;22.30;73.50
52189;DHT22;38162;45.926;13.608;2023-09-07T02:09:00;22.20;73.70
52189;DHT22;38162;45.926;13.608;2023-09-07T02:11:26;22.20;74.20
52189;DHT22;38162;45.926;13.608;2023-09-07T02:13:51;22.20;74.30
52189;DHT22;38162;45.926;13.608;2023-09-07T02:16:17;22.20;74.70
52189;DHT22;38162;45.926;13.608;2023-09-07T02:18:44;22.10;74.60
52189;DHT22;38162;45.926;13.608;2023-09-07T02:21:11;22.00;74.80
52189;DHT22;38162;45.926;13.608;2023-09-07T02:23:37;22.00;75.20
52189;DHT22;38162;45.926;13.608;2023-09-07T02:26:04;22.00;75.20
52189;DHT22;38162;45.926;13.608;2023-09-07T02:28:30;21.90;75.40
52189;DHT22;38162;45.926;13.608;2023-09-07T02:31:05;21.90;75.80
52189;DHT22;38162;45.926;13.608;2023-09-07T02:33:32;21.90;75.80
52189;DHT22;38162;45.926;13.608;2023-09-07T02:35:57;21.90;75.80
52189;DHT22;38162;45.926;13.608;2023-09-07T02:38:24;21.80;75.80
52189;DHT22;38162;45.926;13.608;2023-09-07T02:40:49;21.80;75.80
52189;DHT22;38162;45.926;13.608;2023-09-07T02:43:15;21.80;76.10
52189;DHT22;38162;45.926;13.608;2023-09-07T02:45:42;21.80;76.00
52189;DHT22;38162;45.926;13.608;2023-09-07T02:48:07;21.80;75.90
52189;DHT22;38162;45.926;13.608;2023-09-07T02:50:34;21.70;76.20
52189;DHT22;38162;45.926;13.608;2023-09-07T02:53:00;21.70;76.60
52189;DHT22;38162;45.926;13.608;2023-09-07T02:55:27;21.70;76.50
52189;DHT22;38162;45.926;13.608;2023-09-07T02:57:52;21.70;76.50
52189;DHT22;38162;45.926;13.608;2023-09-07T03:00:19;21.60;76.50
52189;DHT22;38162;45.926;13.608;2023-09-07T03:02:45;21.60;76.60
52189;DHT22;38162;45.926;13.608;2023-09-07T03:05:11;21.60;76.40
52189;DHT22;38162;45.926;13.608;2023-09-07T03:07:37;21.60;76.70
52189;DHT22;38162;45.926;13.608;2023-09-07T03:10:05;21.50;76.70
52189;DHT22;38162;45.926;13.608;2023-09-07T03:12:31;21.50;77.10
52189;DHT22;38162;45.926;13.608;2023-09-07T03:14:57;21.40;77.20
52189;DHT22;38162;45.926;13.608;2023-09-07T03:17:22;21.40;77.70
52189;DHT22;38162;45.926;13.608;2023-09-07T03:19:48;21.40;77.70
52189;DHT22;38162;45.926;13.608;2023-09-07T03:22:14;21.40;77.80
52189;DHT22;38162;45.926;13.608;2023-09-07T03:24:40;21.50;78.00
52189;DHT22;38162;45.926;13.608;2023-09-07T03:27:06;21.50;78.10
52189;DHT22;38162;45.926;13.608;2023-09-07T03:29:32;21.50;77.80
52189;DHT22;38162;45.926;13.608;2023-09-07T03:31:59;21.60;77.20
52189;DHT22;38162;45.926;13.608;2023-09-07T03:34:26;21.50;77.00
52189;DHT22;38162;45.926;13.608;2023-09-07T03:36:51;21.60;77.20
52189;DHT22;38162;45.926;13.608;2023-09-07T03:39:17;21.50;77.00
52189;DHT22;38162;45.926;13.608;2023-09-07T03:41:48;21.40;77.20
52189;DHT22;38162;45.926;13.608;2023-09-07T03:44:13;21.40;77.30
52189;DHT22;38162;45.926;13.608;2023-09-07T03:46:39;21.40;77.50
52189;DHT22;38162;45.926;13.608;2023-09-07T03:49:05;21.40;77.50
52189;DHT22;38162;45.926;13.608;2023-09-07T03:51:31;21.30;77.60
52189;DHT22;38162;45.926;13.608;2023-09-07T03:53:57;21.30;77.80
52189;DHT22;38162;45.926;13.608;2023-09-07T03:56:22;21.30;77.90
52189;DHT22;38162;45.926;13.608;2023-09-07T03:58:48;21.40;77.90
52189;DHT22;38162;45.926;13.608;2023-09-07T04:01:14;21.30;77.50
52189;DHT22;38162;45.926;13.608;2023-09-07T04:03:40;21.30;77.70
52189;DHT22;38162;45.926;13.608;2023-09-07T04:06:07;21.20;78.00
52189;DHT22;38162;45.926;13.608;2023-09-07T04:08:33;21.20;78.20
52189;DHT22;38162;45.926;13.608;2023-09-07T04:11:03;21.10;78.30
52189;DHT22;38162;45.926;13.608;2023-09-07T04:13:29;21.10;79.40
52189;DHT22;38162;45.926;13.608;2023-09-07T04:15:55;21.10;78.80
52189;DHT22;38162;45.926;13.608;2023-09-07T04:18:21;21.00;78.80
52189;DHT22;38162;45.926;13.608;2023-09-07T04:20:47;21.00;78.90
52189;DHT22;38162;45.926;13.608;2023-09-07T04:23:13;21.00;79.20
52189;DHT22;38162;45.926;13.608;2023-09-07T04:25:38;21.00;79.30
52189;DHT22;38162;45.926;13.608;2023-09-07T04:28:05;20.90;79.20
52189;DHT22;38162;45.926;13.608;2023-09-07T04:30:32;20.90;79.30
52189;DHT22;38162;45.926;13.608;2023-09-07T04:32:58;20.90;79.70
52189;DHT22;38162;45.926;13.608;2023-09-07T04:35:29;20.80;79.60
52189;DHT22;38162;45.926;13.608;2023-09-07T04:37:56;20.80;79.50
52189;DHT22;38162;45.926;13.608;2023-09-07T04:40:22;20.80;79.60
52189;DHT22;38162;45.926;13.608;2023-09-07T04:42:48;20.70;79.80
52189;DHT22;38162;45.926;13.608;2023-09-07T04:45:13;20.80;80.40
52189;DHT22;38162;45.926;13.608;2023-09-07T04:47:39;20.90;79.70
52189;DHT22;38162;45.926;13.608;2023-09-07T04:50:05;20.90;79.30
52189;DHT22;38162;45.926;13.608;2023-09-07T04:52:32;20.90;79.30
52189;DHT22;38162;45.926;13.608;2023-09-07T04:54:58;20.80;79.20
52189;DHT22;38162;45.926;13.608;2023-09-07T04:57:23;20.80;79.30
52189;DHT22;38162;45.926;13.608;2023-09-07T04:59:49;20.80;79.50
52189;DHT22;38162;45.926;13.608;2023-09-07T05:02:15;20.80;79.70
52189;DHT22;38162;45.926;13.608;2023-09-07T05:04:40;20.80;79.80
52189;DHT22;38162;45.926;13.608;2023-09-07T05:07:06;20.80;79.90
52189;DHT22;38162;45.926;13.608;2023-09-07T05:09:32;20.70;80.00
52189;DHT22;38162;45.926;13.608;2023-09-07T05:11:58;20.80;80.20
52189;DHT22;38162;45.926;13.608;2023-09-07T05:14:25;20.80;80.00
52189;DHT22;38162;45.926;13.608;2023-09-07T05:16:51;20.80;80.00
52189;DHT22;38162;45.926;13.608;2023-09-07T05:19:17;20.80;79.60
52189;DHT22;38162;45.926;13.608;2023-09-07T05:21:42;20.80;79.60
52189;DHT22;38162;45.926;13.608;2023-09-07T05:24:08;20.80;80.10
52189;DHT22;38162;45.926;13.608;2023-09-07T05:26:34;20.80;80.80
52189;DHT22;38162;45.926;13.608;2023-09-07T05:29:00;20.80;80.60
52189;DHT22;38162;45.926;13.608;2023-09-07T05:31:25;20.80;81.00
52189;DHT22;38162;45.926;13.608;2023-09-07T05:33:52;20.80;81.40
52189;DHT22;38162;45.926;13.608;2023-09-07T05:36:18;20.80;81.40
52189;DHT22;38162;45.926;13.608;2023-09-07T05:38:44;20.90;81.10
52189;DHT22;38162;45.926;13.608;2023-09-07T05:41:10;20.90;80.90
52189;DHT22;38162;45.926;13.608;2023-09-07T05:43:36;20.90;80.70
52189;DHT22;38162;45.926;13.608;2023-09-07T05:46:01;21.00;80.90
52189;DHT22;38162;45.926;13.608;2023-09-07T05:48:28;21.00;80.80
52189;DHT22;38162;45.926;13.608;2023-09-07T05:50:54;21.00;80.70
52189;DHT22;38162;45.926;13.608;2023-09-07T05:53:20;21.10;81.00
52189;DHT22;38162;45.926;13.608;2023-09-07T05:55:46;21.10;81.00
52189;DHT22;38162;45.926;13.608;2023-09-07T05:58:12;21.10;81.10
52189;DHT22;38162;45.926;13.608;2023-09-07T06:00:39;21.20;81.00
52189;DHT22;38162;45.926;13.608;2023-09-07T06:03:06;21.20;80.90
52189;DHT22;38162;45.926;13.608;2023-09-07T06:05:34;21.20;81.10
52189;DHT22;38162;45.926;13.608;2023-09-07T06:08:00;21.30;80.80
52189;DHT22;38162;45.926;13.608;2023-09-07T06:10:28;21.30;80.10
52189;DHT22;38162;45.926;13.608;2023-09-07T06:12:54;21.40;80.00
52189;DHT22;38162;45.926;13.608;2023-09-07T06:15:20;21.40;80.80
52189;DHT22;38162;45.926;13.608;2023-09-07T06:17:46;21.50;80.40
52189;DHT22;38162;45.926;13.608;2023-09-07T06:20:12;21.50;80.10
52189;DHT22;38162;45.926;13.608;2023-09-07T06:22:38;21.50;79.90
52189;DHT22;38162;45.926;13.608;2023-09-07T06:25:04;21.50;79.60
52189;DHT22;38162;45.926;13.608;2023-09-07T06:27:30;21.60;79.40
52189;DHT22;38162;45.926;13.608;2023-09-07T06:29:56;21.60;79.70
52189;DHT22;38162;45.926;13.608;2023-09-07T06:32:22;21.70;80.20
52189;DHT22;38162;45.926;13.608;2023-09-07T06:34:48;21.70;80.40
52189;DHT22;38162;45.926;13.608;2023-09-07T06:37:13;21.70;80.20
52189;DHT22;38162;45.926;13.608;2023-09-07T06:39:39;21.80;80.20
52189;DHT22;38162;45.926;13.608;2023-09-07T06:42:08;21.80;80.30
52189;DHT22;38162;45.926;13.608;2023-09-07T06:44:34;21.90;80.60
52189;DHT22;38162;45.926;13.608;2023-09-07T06:47:00;21.90;79.70
52189;DHT22;38162;45.926;13.608;2023-09-07T06:49:26;21.90;79.40
52189;DHT22;38162;45.926;13.608;2023-09-07T06:51:57;22.00;79.20
52189;DHT22;38162;45.926;13.608;2023-09-07T06:54:23;22.00;79.00
52189;DHT22;38162;45.926;13.608;2023-09-07T06:56:49;22.10;78.60
52189;DHT22;38162;45.926;13.608;2023-09-07T06:59:15;22.10;78.70
52189;DHT22;38162;45.926;13.608;2023-09-07T07:01:41;22.20;79.50
52189;DHT22;38162;45.926;13.608;2023-09-07T07:04:06;22.20;80.40
52189;DHT22;38162;45.926;13.608;2023-09-07T07:06:34;22.20;81.00
52189;DHT22;38162;45.926;13.608;2023-09-07T07:08:59;22.30;80.80
52189;DHT22;38162;45.926;13.608;2023-09-07T07:11:25;22.30;81.00
52189;DHT22;38162;45.926;13.608;2023-09-07T07:13:51;22.30;81.10
52189;DHT22;38162;45.926;13.608;2023-09-07T07:16:17;22.30;81.30
52189;DHT22;38162;45.926;13.608;2023-09-07T07:18:42;22.40;81.40
52189;DHT22;38162;45.926;13.608;2023-09-07T07:21:08;22.40;81.40
52189;DHT22;38162;45.926;13.608;2023-09-07T07:23:35;22.50;81.20
52189;DHT22;38162;45.926;13.608;2023-09-07T07:26:01;22.60;80.90
52189;DHT22;38162;45.926;13.608;2023-09-07T07:28:27;22.60;80.30
52189;DHT22;38162;45.926;13.608;2023-09-07T07:30:53;22.70;79.60
52189;DHT22;38162;45.926;13.608;2023-09-07T07:33:19;22.70;77.10
52189;DHT22;38162;45.926;13.608;2023-09-07T07:35:45;22.80;76.90
52189;DHT22;38162;45.926;13.608;2023-09-07T07:38:12;22.90;76.50
52189;DHT22;38162;45.926;13.608;2023-09-07T07:40:39;22.90;75.80
52189;DHT22;38162;45.926;13.608;2023-09-07T07:43:05;23.00;74.90
52189;DHT22;38162;45.926;13.608;2023-09-07T07:45:32;23.10;74.60
52189;DHT22;38162;45.926;13.608;2023-09-07T07:48:02;23.10;74.60
52189;DHT22;38162;45.926;13.608;2023-09-07T07:50:30;23.20;74.10
52189;DHT22;38162;45.926;13.608;2023-09-07T07:52:57;23.30;73.70
52189;DHT22;38162;45.926;13.608;2023-09-07T07:55:22;23.30;72.90
52189;DHT22;38162;45.926;13.608;2023-09-07T07:57:48;23.40;72.50
52189;DHT22;38162;45.926;13.608;2023-09-07T08:00:14;23.40;71.80
52189;DHT22;38162;45.926;13.608;2023-09-07T08:02:40;23.50;72.40
52189;DHT22;38162;45.926;13.608;2023-09-07T08:05:06;23.60;71.80
52189;DHT22;38162;45.926;13.608;2023-09-07T08:07:32;23.60;70.50
52189;DHT22;38162;45.926;13.608;2023-09-07T08:09:58;23.70;69.80
52189;DHT22;38162;45.926;13.608;2023-09-07T08:12:23;23.80;69.90
52189;DHT22;38162;45.926;13.608;2023-09-07T08:14:49;23.80;70.30
52189;DHT22;38162;45.926;13.608;2023-09-07T08:17:15;23.90;71.40
52189;DHT22;38162;45.926;13.608;2023-09-07T08:19:41;23.90;72.10
52189;DHT22;38162;45.926;13.608;2023-09-07T08:22:06;24.00;71.30
52189;DHT22;38162;45.926;13.608;2023-09-07T08:24:34;24.00;70.70
52189;DHT22;38162;45.926;13.608;2023-09-07T08:27:00;24.10;69.70
52189;DHT22;38162;45.926;13.608;2023-09-07T08:29:26;24.10;69.10
52189;DHT22;38162;45.926;13.608;2023-09-07T08:31:55;24.20;69.10
52189;DHT22;38162;45.926;13.608;2023-09-07T08:34:21;24.20;68.60
52189;DHT22;38162;45.926;13.608;2023-09-07T08:36:48;24.30;68.90
52189;DHT22;38162;45.926;13.608;2023-09-07T08:39:16;24.40;67.70
52189;DHT22;38162;45.926;13.608;2023-09-07T08:41:43;24.40;67.50
52189;DHT22;38162;45.926;13.608;2023-09-07T08:44:16;24.50;64.50
52189;DHT22;38162;45.926;13.608;2023-09-07T08:46:43;24.50;64.00
52189;DHT22;38162;45.926;13.608;2023-09-07T08:49:09;24.60;64.40
52189;DHT22;38162;45.926;13.608;2023-09-07T08:51:37;24.60;65.00
52189;DHT22;38162;45.926;13.608;2023-09-07T08:54:04;24.70;65.00
52189;DHT22;38162;45.926;13.608;2023-09-07T08:56:30;24.70;64.90
52189;DHT22;38162;45.926;13.608;2023-09-07T08:58:56;24.80;64.00
52189;DHT22;38162;45.926;13.608;2023-09-07T09:01:22;24.80;64.10
52189;DHT22;38162;45.926;13.608;2023-09-07T09:03:51;24.90;64.70
52189;DHT22;38162;45.926;13.608;2023-09-07T09:06:18;24.90;64.70
52189;DHT22;38162;45.926;13.608;2023-09-07T09:08:51;24.90;64.50
52189;DHT22;38162;45.926;13.608;2023-09-07T09:11:20;25.00;64.40
52189;DHT22;38162;45.926;13.608;2023-09-07T09:13:48;25.00;64.50
52189;DHT22;38162;45.926;13.608;2023-09-07T09:16:14;25.10;64.50
52189;DHT22;38162;45.926;13.608;2023-09-07T09:18:54;25.20;64.30
52189;DHT22;38162;45.926;13.608;2023-09-07T09:21:21;25.20;63.60
52189;DHT22;38162;45.926;13.608;2023-09-07T09:23:49;25.20;63.20
52189;DHT22;38162;45.926;13.608;2023-09-07T09:26:15;25.30;63.00
52189;DHT22;38162;45.926;13.608;2023-09-07T09:28:42;25.40;62.90
52189;DHT22;38162;45.926;13.608;2023-09-07T09:31:09;25.40;62.90
52189;DHT22;38162;45.926;13.608;2023-09-07T09:33:39;25.50;62.20
52189;DHT22;38162;45.926;13.608;2023-09-07T09:36:06;25.50;59.50
52189;DHT22;38162;45.926;13.608;2023-09-07T09:38:35;25.70;59.50
52189;DHT22;38162;45.926;13.608;2023-09-07T09:41:01;25.70;60.20
52189;DHT22;38162;45.926;13.608;2023-09-07T09:43:29;25.70;61.00
52189;DHT22;38162;45.926;13.608;2023-09-07T09:45:55;25.80;60.00
52189;DHT22;38162;45.926;13.608;2023-09-07T09:48:22;25.90;60.30
52189;DHT22;38162;45.926;13.608;2023-09-07T09:50:49;26.00;60.10
52189;DHT22;38162;45.926;13.608;2023-09-07T09:53:19;26.00;60.20
52189;DHT22;38162;45.926;13.608;2023-09-07T09:55:50;26.10;61.10
52189;DHT22;38162;45.926;13.608;2023-09-07T09:58:18;26.10;61.00
52189;DHT22;38162;45.926;13.608;2023-09-07T10:00:53;26.20;60.20
52189;DHT22;38162;45.926;13.608;2023-09-07T10:03:24;26.30;59.80
52189;DHT22;38162;45.926;13.608;2023-09-07T10:05:54;26.30;59.80
52189;DHT22;38162;45.926;13.608;2023-09-07T10:08:20;26.40;60.60
52189;DHT22;38162;45.926;13.608;2023-09-07T10:10:49;26.50;58.70
52189;DHT22;38162;45.926;13.608;2023-09-07T10:13:29;26.50;58.50
52189;DHT22;38162;45.926;13.608;2023-09-07T10:16:02;26.60;58.00
52189;DHT22;38162;45.926;13.608;2023-09-07T10:18:39;26.60;58.00
52189;DHT22;38162;45.926;13.608;2023-09-07T10:21:06;26.60;58.80
52189;DHT22;38162;45.926;13.608;2023-09-07T10:23:42;26.70;58.50
52189;DHT22;38162;45.926;13.608;2023-09-07T10:26:16;26.80;57.20
52189;DHT22;38162;45.926;13.608;2023-09-07T10:28:45;26.90;57.10
52189;DHT22;38162;45.926;13.608;2023-09-07T10:31:16;27.00;57.60
52189;DHT22;38162;45.926;13.608;2023-09-07T10:33:43;27.00;57.20
52189;DHT22;38162;45.926;13.608;2023-09-07T10:36:23;27.10;57.20
52189;DHT22;38162;45.926;13.608;2023-09-07T10:38:50;27.20;57.40
52189;DHT22;38162;45.926;13.608;2023-09-07T10:41:19;27.20;56.80
52189;DHT22;38162;45.926;13.608;2023-09-07T10:43:49;27.30;57.30
52189;DHT22;38162;45.926;13.608;2023-09-07T10:46:18;27.40;57.50
52189;DHT22;38162;45.926;13.608;2023-09-07T10:48:45;27.40;58.20
52189;DHT22;38162;45.926;13.608;2023-09-07T10:51:11;27.50;58.90
52189;DHT22;38162;45.926;13.608;2023-09-07T10:53:36;27.60;56.00
52189;DHT22;38162;45.926;13.608;2023-09-07T10:56:03;27.70;57.30
52189;DHT22;38162;45.926;13.608;2023-09-07T10:58:31;27.70;57.20
52189;DHT22;38162;45.926;13.608;2023-09-07T11:00:58;27.80;57.60
52189;DHT22;38162;45.926;13.608;2023-09-07T11:03:27;27.90;57.30
52189;DHT22;38162;45.926;13.608;2023-09-07T11:06:02;27.90;55.80
52189;DHT22;38162;45.926;13.608;2023-09-07T11:08:31;28.00;54.20
52189;DHT22;38162;45.926;13.608;2023-09-07T11:10:59;28.10;54.10
52189;DHT22;38162;45.926;13.608;2023-09-07T11:13:25;28.10;53.20
52189;DHT22;38162;45.926;13.608;2023-09-07T11:15:59;28.10;53.30
52189;DHT22;38162;45.926;13.608;2023-09-07T11:18:25;28.10;53.10
52189;DHT22;38162;45.926;13.608;2023-09-07T11:20:52;28.20;54.20
52189;DHT22;38162;45.926;13.608;2023-09-07T11:23:19;28.20;54.90
52189;DHT22;38162;45.926;13.608;2023-09-07T11:25:49;28.30;54.80
52189;DHT22;38162;45.926;13.608;2023-09-07T11:28:17;28.40;55.50
52189;DHT22;38162;45.926;13.608;2023-09-07T11:30:53;28.40;54.80
52189;DHT22;38162;45.926;13.608;2023-09-07T11:33:21;28.50;54.00
52189;DHT22;38162;45.926;13.608;2023-09-07T11:35:47;28.50;53.40
52189;DHT22;38162;45.926;13.608;2023-09-07T11:38:15;28.60;53.60
52189;DHT22;38162;45.926;13.608;2023-09-07T11:40:41;28.60;54.10
52189;DHT22;38162;45.926;13.608;2023-09-07T11:43:14;28.70;55.30
52189;DHT22;38162;45.926;13.608;2023-09-07T11:45:42;28.80;54.10
52189;DHT22;38162;45.926;13.608;2023-09-07T11:48:08;28.80;53.50
52189;DHT22;38162;45.926;13.608;2023-09-07T11:50:35;28.90;52.70
52189;DHT22;38162;45.926;13.608;2023-09-07T11:53:01;28.90;53.20
52189;DHT22;38162;45.926;13.608;2023-09-07T11:55:27;29.00;52.50
52189;DHT22;38162;45.926;13.608;2023-09-07T11:57:53;29.00;53.40
52189;DHT22;38162;45.926;13.608;2023-09-07T12:00:19;29.10;53.50
52189;DHT22;38162;45.926;13.608;2023-09-07T12:02:45;29.10;52.50
52189;DHT22;38162;45.926;13.608;2023-09-07T12:05:11;29.00;51.60
52189;DHT22;38162;45.926;13.608;2023-09-07T12:07:41;29.10;53.00
52189;DHT22;38162;45.926;13.608;2023-09-07T12:10:07;29.10;52.10
52189;DHT22;38162;45.926;13.608;2023-09-07T12:12:39;29.20;52.50
52189;DHT22;38162;45.926;13.608;2023-09-07T12:15:05;29.30;52.70
52189;DHT22;38162;45.926;13.608;2023-09-07T12:17:32;29.30;53.80
52189;DHT22;38162;45.926;13.608;2023-09-07T12:19:58;29.40;54.20
52189;DHT22;38162;45.926;13.608;2023-09-07T12:22:24;29.40;54.40
52189;DHT22;38162;45.926;13.608;2023-09-07T12:24:49;29.40;52.10
52189;DHT22;38162;45.926;13.608;2023-09-07T12:27:15;29.50;53.00
52189;DHT22;38162;45.926;13.608;2023-09-07T12:29:41;29.50;52.10
52189;DHT22;38162;45.926;13.608;2023-09-07T12:32:07;29.50;51.90
52189;DHT22;38162;45.926;13.608;2023-09-07T12:34:33;29.50;52.00
52189;DHT22;38162;45.926;13.608;2023-09-07T12:36:59;29.40;51.40
52189;DHT22;38162;45.926;13.608;2023-09-07T12:39:24;29.50;51.30
52189;DHT22;38162;45.926;13.608;2023-09-07T12:41:51;29.40;51.10
52189;DHT22;38162;45.926;13.608;2023-09-07T12:44:16;29.40;52.40
52189;DHT22;38162;45.926;13.608;2023-09-07T12:46:43;29.40;51.80
52189;DHT22;38162;45.926;13.608;2023-09-07T12:49:09;29.50;51.60
52189;DHT22;38162;45.926;13.608;2023-09-07T12:51:35;29.50;52.30
52189;DHT22;38162;45.926;13.608;2023-09-07T12:54:01;29.50;50.40
52189;DHT22;38162;45.926;13.608;2023-09-07T12:56:28;29.50;49.60
52189;DHT22;38162;45.926;13.608;2023-09-07T12:58:54;29.50;51.00
52189;DHT22;38162;45.926;13.608;2023-09-07T13:01:19;29.50;50.50
52189;DHT22;38162;45.926;13.608;2023-09-07T13:03:45;29.50;51.10
52189;DHT22;38162;45.926;13.608;2023-09-07T13:06:11;29.50;51.60
52189;DHT22;38162;45.926;13.608;2023-09-07T13:08:37;29.50;50.30
52189;DHT22;38162;45.926;13.608;2023-09-07T13:11:02;29.50;50.20
52189;DHT22;38162;45.926;13.608;2023-09-07T13:13:29;29.50;51.10
52189;DHT22;38162;45.926;13.608;2023-09-07T13:15:56;29.60;50.00
52189;DHT22;38162;45.926;13.608;2023-09-07T13:18:22;29.60;50.80
52189;DHT22;38162;45.926;13.608;2023-09-07T13:20:48;29.70;51.90
52189;DHT22;38162;45.926;13.608;2023-09-07T13:23:16;29.70;51.60
52189;DHT22;38162;45.926;13.608;2023-09-07T13:25:42;29.70;51.10
52189;DHT22;38162;45.926;13.608;2023-09-07T13:28:07;29.70;50.60
52189;DHT22;38162;45.926;13.608;2023-09-07T13:30:33;29.70;51.30
52189;DHT22;38162;45.926;13.608;2023-09-07T13:32:59;29.80;51.30
52189;DHT22;38162;45.926;13.608;2023-09-07T13:35:25;29.80;51.10
52189;DHT22;38162;45.926;13.608;2023-09-07T13:37:51;29.70;50.90
52189;DHT22;38162;45.926;13.608;2023-09-07T13:40:17;29.70;51.10
52189;DHT22;38162;45.926;13.608;2023-09-07T13:42:45;29.70;51.30
52189;DHT22;38162;45.926;13.608;2023-09-07T13:45:11;29.70;50.80
52189;DHT22;38162;45.926;13.608;2023-09-07T13:47:37;29.80;51.30
52189;DHT22;38162;45.926;13.608;2023-09-07T13:50:04;29.80;51.20
52189;DHT22;38162;45.926;13.608;2023-09-07T13:52:30;29.80;51.70
52189;DHT22;38162;45.926;13.608;2023-09-07T13:54:55;29.80;51.80
52189;DHT22;38162;45.926;13.608;2023-09-07T13:57:21;29.70;51.10
52189;DHT22;38162;45.926;13.608;2023-09-07T13:59:48;29.70;51.00
52189;DHT22;38162;45.926;13.608;2023-09-07T14:02:14;29.60;50.40
52189;DHT22;38162;45.926;13.608;2023-09-07T14:04:40;29.60;51.50
52189;DHT22;38162;45.926;13.608;2023-09-07T14:07:06;29.60;51.10
52189;DHT22;38162;45.926;13.608;2023-09-07T14:09:32;29.50;50.70
52189;DHT22;38162;45.926;13.608;2023-09-07T14:11:59;29.50;51.30
52189;DHT22;38162;45.926;13.608;2023-09-07T14:14:24;29.50;50.70
52189;DHT22;38162;45.926;13.608;2023-09-07T14:16:50;29.40;50.30
52189;DHT22;38162;45.926;13.608;2023-09-07T14:19:20;29.40;49.80
52189;DHT22;38162;45.926;13.608;2023-09-07T14:21:46;29.40;51.00
52189;DHT22;38162;45.926;13.608;2023-09-07T14:24:12;29.40;50.90
52189;DHT22;38162;45.926;13.608;2023-09-07T14:26:37;29.30;51.80
52189;DHT22;38162;45.926;13.608;2023-09-07T14:29:03;29.40;51.10
52189;DHT22;38162;45.926;13.608;2023-09-07T14:31:30;29.30;51.00
52189;DHT22;38162;45.926;13.608;2023-09-07T14:33:56;29.30;50.40
52189;DHT22;38162;45.926;13.608;2023-09-07T14:36:21;29.30;50.70
52189;DHT22;38162;45.926;13.608;2023-09-07T14:38:47;29.30;51.70
52189;DHT22;38162;45.926;13.608;2023-09-07T14:41:13;29.30;51.20
52189;DHT22;38162;45.926;13.608;2023-09-07T14:43:45;29.30;52.00
52189;DHT22;38162;45.926;13.608;2023-09-07T14:46:11;29.30;50.80
52189;DHT22;38162;45.926;13.608;2023-09-07T14:48:37;29.30;51.00
52189;DHT22;38162;45.926;13.608;2023-09-07T14:51:03;29.40;51.50
52189;DHT22;38162;45.926;13.608;2023-09-07T14:53:29;29.30;51.10
52189;DHT22;38162;45.926;13.608;2023-09-07T14:55:56;29.40;51.40
52189;DHT22;38162;45.926;13.608;2023-09-07T14:58:22;29.30;50.90
52189;DHT22;38162;45.926;13.608;2023-09-07T15:00:47;29.30;51.40
52189;DHT22;38162;45.926;13.608;2023-09-07T15:03:13;29.30;51.30
52189;DHT22;38162;45.926;13.608;2023-09-07T15:05:39;29.30;51.40
52189;DHT22;38162;45.926;13.608;2023-09-07T15:08:04;29.40;51.40
52189;DHT22;38162;45.926;13.608;2023-09-07T15:10:32;29.30;51.00
52189;DHT22;38162;45.926;13.608;2023-09-07T15:13:00;29.30;50.90